This is the latest recevied weather packets stored in our database for station/object KM4FZA. If no packets are shown the sender has not sent any weather packets the latest 10 day(s).
| Time | Temp. | Humidity | Pressure | Rain* | Wind** | Luminosity | Snow |
|---|---|---|---|---|---|---|---|
| 1777570541 | 23.33° C | 44% | 1012.7 hPa | 0 mm | - | - | - |
| 1777566918 | 22.78° C | 48% | 1013.2 hPa | 0 mm | - | - | - |
| 1777566323 | 22.22° C | 48% | 1013.3 hPa | 0 mm | - | - | - |
| 1777565729 | 21.67° C | 49% | 1013.4 hPa | 0 mm | - | - | - |
| 1777563928 | 21.11° C | 53% | 1014.2 hPa | 0 mm | - | - | - |
| 1777563333 | 20° C | 56% | 1014.1 hPa | 0 mm | - | - | - |
| 1777562720 | 20.56° C | 55% | 1014 hPa | 0 mm | - | - | - |
| 1777556147 | 16.11° C | 80% | 1014.7 hPa | 0 mm | - | - | - |
| 1777547720 | 13.33° C | 89% | 1013.2 hPa | 0 mm | - | - | - |
| 1777546519 | 13.33° C | 88% | 1012.7 hPa | 0 mm | - | - | - |
| 1777538130 | 16.11° C | 72% | 1012.5 hPa | 0 mm | - | - | - |
| 1777536328 | 16.67° C | 75% | 1012.3 hPa | 0 mm | - | - | - |
| 1777530329 | 15.56° C | 95% | 1011.9 hPa | 0 mm | - | - | - |
| 1777527321 | 16.11° C | 93% | 1012.6 hPa | 0 mm | - | - | - |
| 1777525519 | 17.22° C | 90% | 1012.6 hPa | 0 mm | - | - | - |
| 1777523718 | 18.33° C | 85% | 1012.3 hPa | 0 mm | - | - | - |
| 1777521322 | 20° C | 78% | 1012.4 hPa | 0 mm | - | - | - |
| 1777519520 | 20° C | 85% | 1012.5 hPa | 0 mm | - | - | - |
| 1777512332 | 18.89° C | 90% | 1011.2 hPa | 0 mm | - | - | - |
| 1777511719 | 19.44° C | 88% | 1011.1 hPa | 0 mm | - | - | - |
| 1777508729 | 21.67° C | 80% | 1010.5 hPa | 0 mm | - | - | - |
| 1777508117 | 22.22° C | 79% | 1010.5 hPa | 0 mm | - | - | - |
| 1777502118 | 25.56° C | 61% | 1010.1 hPa | 0 mm | - | - | - |
| 1777501543 | 26.11° C | 60% | 1010.3 hPa | 0 mm | - | - | - |
| 1777496731 | 26.11° C | 57% | 1010.9 hPa | 0 mm | - | - | - |
* Rain latest hour (hover to see other rain measurements)
** Current wind speed in m/s (hover to see current wind gust speed)